Time;durP1;ratioP1;P1;durP2;ratioP2;P2;SDS_P1;SDS_P2;PMS_P1;PMS_P2;Temp;Humidity;BMP_temperature;BMP_pressure;BME280_temperature;BME280_humidity;BME280_pressure;Samples;Min_cycle;Max_cycle;Signal;HPM_P1;HPM_P2
2022/05/15 00:01:25;;;;;;;33.03;11.65;;;17.50;99.90;;;17.69;66.38;101973.91;5113660;28;20044;-73
2022/05/15 00:03:56;;;;;;;38.58;11.63;;;17.40;99.90;;;17.77;66.43;101984.50;5113372;28;20047;-74
2022/05/15 00:06:24;;;;;;;34.03;10.82;;;17.40;99.90;;;17.75;66.85;101981.84;5113350;28;20059;-73
2022/05/15 00:08:53;;;;;;;37.72;10.95;;;17.40;99.90;;;17.72;66.96;101975.66;5113196;28;20035;-73
2022/05/15 00:11:21;;;;;;;42.17;11.70;;;17.40;99.90;;;17.61;67.27;101969.59;5113387;28;20109;-74
2022/05/15 00:13:49;;;;;;;31.67;11.05;;;17.30;99.90;;;17.50;67.74;101971.56;5113266;28;20043;-74
2022/05/15 00:16:19;;;;;;;38.00;12.98;;;17.20;99.90;;;17.38;68.26;101966.38;5113277;28;20047;-73
2022/05/15 00:18:48;;;;;;;38.03;12.07;;;17.10;99.90;;;17.40;68.61;101968.09;5113170;28;20039;-73
2022/05/15 00:21:21;;;;;;;29.17;11.63;;;17.10;99.90;;;16.92;68.82;101867.19;5113513;28;20128;-73
2022/05/15 00:23:49;;;;;;;34.17;11.75;;;17.10;99.90;;;17.43;69.00;101959.13;5113148;28;20044;-74
2022/05/15 00:26:18;;;;;;;41.30;12.50;;;17.10;99.90;;;17.30;69.21;101945.09;5113035;28;20043;-73
2022/05/15 00:28:46;;;;;;;36.65;11.77;;;17.10;99.90;;;17.49;69.36;101962.66;5112970;28;20059;-75
2022/05/15 00:31:15;;;;;;;43.10;12.88;;;17.20;99.90;;;17.38;69.33;101934.25;5094601;28;20126;-73
2022/05/15 00:33:47;;;;;;;35.33;12.70;;;17.20;99.90;;;17.38;69.44;101956.53;5112952;28;20146;-73
2022/05/15 00:36:15;;;;;;;37.38;11.93;;;17.10;99.90;;;17.30;69.80;101952.22;5113167;28;20051;-74
2022/05/15 00:38:45;;;;;;;37.15;12.43;;;17.00;99.90;;;17.36;69.85;101957.47;5112630;28;20118;-72
2022/05/15 00:41:15;;;;;;;43.72;13.32;;;17.00;99.90;;;17.34;70.06;101961.97;5112752;28;20190;-73
2022/05/15 00:43:47;;;;;;;35.47;12.23;;;17.00;99.90;;;17.31;70.15;101964.66;5112700;28;20048;-73
2022/05/15 00:46:21;;;;;;;34.25;13.07;;;17.00;99.90;;;17.26;70.38;101947.81;5112815;28;20500;-74
2022/05/15 00:48:51;;;;;;;33.85;12.75;;;17.10;99.90;;;17.01;70.75;101953.50;5095087;28;20059;-73
2022/05/15 00:51:24;;;;;;;43.28;13.13;;;16.80;99.90;;;17.07;71.04;101963.25;5094856;28;20455;-73
2022/05/15 00:54:04;;;;;;;34.05;11.73;;;16.80;99.90;;;17.08;71.30;101955.19;5112881;28;20047;-73
2022/05/15 00:56:34;;;;;;;33.97;11.93;;;16.80;99.90;;;16.99;71.18;101928.56;5094474;28;20044;-73
2022/05/15 00:59:10;;;;;;;38.47;12.63;;;16.80;99.90;;;17.08;71.34;101954.31;5112850;28;20043;-74
2022/05/15 01:01:38;;;;;;;30.13;10.50;;;16.80;99.90;;;17.16;71.38;101949.72;5097843;28;20533;-73
2022/05/15 01:04:07;;;;;;;39.63;12.15;;;16.80;99.90;;;17.19;71.19;101948.81;5116780;28;20043;-73
2022/05/15 01:06:37;;;;;;;38.28;12.23;;;16.90;99.90;;;17.23;71.21;101953.22;5116789;28;20073;-73
2022/05/15 01:09:07;;;;;;;28.70;12.10;;;16.90;99.90;;;17.25;70.97;101962.09;5098594;28;20415;-73
2022/05/15 01:11:39;;;;;;;36.33;12.43;;;16.90;99.90;;;17.14;70.93;101965.81;5098344;28;20493;-72
2022/05/15 01:14:13;;;;;;;32.13;12.68;;;16.90;99.90;;;17.20;70.96;101954.13;5098573;28;20051;-73
2022/05/15 01:16:44;;;;;;;34.47;12.13;;;16.90;99.90;;;17.22;70.93;101951.44;5098429;28;20047;-73
2022/05/15 01:19:14;;;;;;;36.08;11.25;;;16.90;99.90;;;17.17;70.92;101949.72;5116697;28;20048;-73
2022/05/15 01:21:56;;;;;;;39.20;13.38;;;16.80;99.90;;;16.54;70.93;101835.69;5098173;28;20051;-73
2022/05/15 01:24:29;;;;;;;42.47;11.93;;;16.80;99.90;;;17.07;71.08;101942.72;5098318;28;20040;-73
2022/05/15 01:26:58;;;;;;;32.75;11.75;;;16.80;99.90;;;16.93;71.28;101939.38;5098291;28;20393;-73
2022/05/15 01:29:32;;;;;;;33.57;11.03;;;16.70;99.90;;;16.98;71.29;101940.19;5098197;28;20055;-72
2022/05/15 01:32:03;;;;;;;29.05;11.38;;;16.70;99.90;;;17.00;71.42;101946.38;5098084;28;20055;-73
2022/05/15 01:34:32;;;;;;;42.10;12.70;;;16.70;99.90;;;16.94;71.29;101943.78;5098100;28;20078;-73
2022/05/15 01:37:02;;;;;;;34.92;12.57;;;16.70;99.90;;;16.95;71.39;101942.00;5098523;28;20056;-73
2022/05/15 01:39:31;;;;;;;42.60;12.20;;;16.70;99.90;;;16.96;71.27;101949.09;5116439;28;20092;-73
2022/05/15 01:42:00;;;;;;;36.63;11.63;;;16.60;99.90;;;16.74;71.57;101937.81;5097855;28;20488;-73
2022/05/15 01:44:30;;;;;;;36.20;11.48;;;16.50;99.90;;;16.76;71.80;101940.50;5097837;28;20509;-73
2022/05/15 01:46:59;;;;;;;34.92;11.98;;;16.50;99.90;;;16.87;71.64;101942.13;5097750;28;20096;-72
2022/05/15 01:49:28;;;;;;;34.95;12.40;;;16.50;99.90;;;16.88;71.48;101932.28;5097889;28;20139;-73
2022/05/15 01:51:56;;;;;;;40.20;12.35;;;16.50;99.90;;;16.86;71.39;101928.78;5097744;28;20573;-73
2022/05/15 01:54:26;;;;;;;33.95;11.45;;;16.50;99.90;;;16.85;71.43;101933.22;5097706;28;20043;-73
2022/05/15 01:56:54;;;;;;;35.22;12.95;;;16.60;99.90;;;16.85;71.21;101927.88;5097795;28;20147;-72
2022/05/15 01:59:23;;;;;;;36.03;11.63;;;16.50;99.90;;;16.70;71.40;101922.75;5097391;28;20138;-73
2022/05/15 02:01:51;;;;;;;39.13;12.80;;;16.50;99.90;;;16.57;71.88;101923.78;5097669;28;20143;-73
2022/05/15 02:04:20;;;;;;;34.13;12.48;;;16.30;99.90;;;16.63;71.87;101928.16;5115835;28;20381;-72
2022/05/15 02:06:49;;;;;;;38.67;13.43;;;16.30;99.90;;;16.65;71.80;101931.69;5097640;28;20496;-73
2022/05/15 02:09:17;;;;;;;39.13;12.80;;;16.30;99.90;;;16.65;71.55;101937.03;5097480;28;20381;-73
2022/05/15 02:11:47;;;;;;;31.38;12.82;;;16.30;99.90;;;16.66;71.75;101934.38;5115103;28;20112;-72
2022/05/15 02:14:15;;;;;;;31.30;12.02;;;16.30;99.90;;;16.68;71.74;101929.91;5097262;28;20043;-72
2022/05/15 02:16:44;;;;;;;35.22;12.88;;;16.40;99.90;;;16.77;71.41;101931.56;5115681;28;20039;-73
2022/05/15 02:19:12;;;;;;;38.80;12.40;;;16.40;99.90;;;16.70;71.32;101928.09;5097132;28;20395;-73
2022/05/15 02:21:40;;;;;;;37.60;13.95;;;16.40;99.90;;;16.70;71.26;101933.44;5097279;28;20047;-73
2022/05/15 02:24:09;;;;;;;40.90;13.48;;;16.40;99.90;;;16.63;71.27;101933.50;5097079;28;20423;-73
2022/05/15 02:26:39;;;;;;;35.78;13.05;;;16.40;99.90;;;16.68;71.07;101927.22;5097042;28;20047;-73
2022/05/15 02:29:10;;;;;;;38.47;12.65;;;16.40;99.90;;;16.59;70.97;101931.81;5097270;28;20051;-73
2022/05/15 02:31:39;;;;;;;37.78;12.50;;;16.40;99.90;;;16.56;71.19;101930.03;5115429;28;20127;-73
2022/05/15 02:34:08;;;;;;;32.63;12.00;;;16.30;99.90;;;16.48;71.36;101926.56;5097044;28;20044;-73
2022/05/15 02:36:37;;;;;;;36.78;12.70;;;16.30;99.90;;;16.52;71.57;101922.06;5096895;28;20104;-73
2022/05/15 02:39:06;;;;;;;33.60;12.18;;;16.30;99.90;;;16.53;71.34;101924.72;5114881;28;20058;-73
2022/05/15 02:41:35;;;;;;;38.75;13.02;;;16.20;99.90;;;16.42;71.43;101929.28;5097071;28;20058;-73
2022/05/15 02:44:05;;;;;;;41.30;13.30;;;16.10;99.90;;;16.37;71.55;101932.91;5096802;28;20096;-72
2022/05/15 02:46:35;;;;;;;30.17;11.40;;;16.10;99.90;;;16.43;71.51;101912.38;5096781;28;20294;-72
2022/05/15 02:51:53;;;;;;;36.10;11.88;;;16.20;99.90;;;16.48;71.32;101918.56;5096831;28;20094;-72
2022/05/15 02:54:22;;;;;;;33.65;12.02;;;16.20;99.90;;;16.43;71.37;101916.81;5114762;28;20047;-72
2022/05/15 02:56:50;;;;;;;33.75;11.18;;;16.10;99.90;;;16.31;71.59;101920.50;5096561;28;20569;-72
2022/05/15 02:59:19;;;;;;;35.38;11.82;;;16.10;99.90;;;16.36;71.49;101917.75;5096222;28;20056;-71
2022/05/15 03:01:49;;;;;;;33.60;12.05;;;16.00;99.90;;;16.36;71.32;101915.09;5114818;28;20108;-73
2022/05/15 03:04:17;;;;;;;37.27;11.90;;;16.10;99.90;;;16.38;71.57;101907.94;5096212;28;20051;-72
2022/05/15 03:06:46;;;;;;;37.70;12.90;;;16.10;99.90;;;16.35;71.49;101910.66;5114647;28;20075;-72
2022/05/15 03:09:14;;;;;;;35.10;11.43;;;16.10;99.90;;;16.29;70.82;101900.94;5114538;28;20138;-71
2022/05/15 03:11:42;;;;;;;34.90;11.88;;;16.00;99.90;;;16.31;71.08;101892.91;5096298;28;20106;-72
2022/05/15 03:14:11;;;;;;;36.80;12.93;;;16.00;99.90;;;16.34;71.08;101901.75;5096196;28;20048;-72
2022/05/15 03:16:39;;;;;;;35.92;12.20;;;16.00;99.90;;;16.31;70.73;101892.91;5114228;28;20048;-71
2022/05/15 03:19:12;;;;;;;38.97;12.50;;;16.00;99.90;;;16.21;70.70;101890.34;5096223;28;20115;-72
2022/05/15 03:21:40;;;;;;;38.08;12.88;;;16.00;99.90;;;16.07;71.02;101894.06;5114387;28;20073;-72
2022/05/15 03:24:12;;;;;;;36.85;12.57;;;15.80;99.90;;;16.16;71.18;101899.31;5113140;28;20447;-72
2022/05/15 03:26:43;;;;;;;39.17;12.32;;;15.80;99.90;;;16.06;71.22;101897.63;5096016;28;20056;-72
2022/05/15 03:29:14;;;;;;;37.90;13.73;;;15.80;99.90;;;15.89;71.48;101891.59;5114017;28;20043;-72
2022/05/15 03:31:43;;;;;;;35.20;11.75;;;15.70;99.90;;;15.65;72.13;101886.47;5095966;28;20044;-72
2022/05/15 03:34:15;;;;;;;34.78;13.45;;;15.50;99.90;;;15.83;72.13;101883.66;5096021;28;20051;-71
2022/05/15 03:36:46;;;;;;;34.70;12.45;;;15.50;99.90;;;15.86;71.94;101886.28;5114024;28;20043;-72
2022/05/15 03:39:15;;;;;;;;;;;15.50;99.90;;;15.80;72.16;101891.66;5096152;28;20111;-72
2022/05/15 03:41:46;;;;;;;39.53;12.73;;;15.60;99.90;;;15.78;72.11;101882.78;5112862;28;19924;-72
2022/05/15 03:44:15;;;;;;;39.50;12.65;;;15.50;99.90;;;15.63;72.02;101880.25;5113948;28;20075;-72
2022/05/15 03:46:44;;;;;;;37.25;12.35;;;15.50;99.90;;;15.70;72.23;101885.53;5095660;28;20445;-72
2022/05/15 03:49:14;;;;;;;31.75;12.85;;;15.40;99.90;;;15.84;72.17;101888.06;5095491;28;20496;-72
2022/05/15 03:51:44;;;;;;;38.58;12.75;;;15.50;99.90;;;15.82;71.97;101885.41;5095536;28;20048;-72
2022/05/15 03:54:14;;;;;;;37.38;12.15;;;15.50;99.90;;;15.19;71.83;101782.84;5113769;28;20062;-71
2022/05/15 03:56:52;;;;;;;42.33;12.70;;;15.50;99.90;;;15.85;71.58;101881.84;5113719;28;20512;-72
2022/05/15 03:59:27;;;;;;;36.42;12.35;;;15.50;99.90;;;15.78;71.40;101888.13;5095569;28;20055;-71
2022/05/15 04:01:55;;;;;;;37.92;13.43;;;15.50;99.90;;;15.89;71.49;101888.94;5095436;28;20040;-72
2022/05/15 04:04:29;;;;;;;42.95;12.90;;;15.60;99.90;;;15.82;71.49;101887.19;5095142;28;20071;-72
2022/05/15 04:06:58;;;;;;;39.03;12.50;;;15.50;99.90;;;15.79;71.63;101885.47;5095676;28;20168;-72
2022/05/15 04:09:28;;;;;;;35.97;12.35;;;15.50;99.90;;;15.83;71.37;101887.16;5113588;28;20043;-72
2022/05/15 04:11:56;;;;;;;33.97;12.82;;;15.50;99.90;;;15.80;71.18;101886.31;5095140;28;20048;-72
2022/05/15 04:14:25;;;;;;;38.95;11.50;;;15.50;99.90;;;15.83;71.33;101884.50;5095068;28;20179;-72
2022/05/15 04:16:54;;;;;;;32.10;10.80;;;15.50;99.90;;;15.84;71.02;101885.41;5113218;28;20047;-72
2022/05/15 04:19:22;;;;;;;40.63;12.32;;;15.50;99.90;;;15.86;71.22;101880.94;5113436;28;20153;-72
2022/05/15 04:21:52;;;;;;;36.47;12.05;;;15.50;99.90;;;15.75;71.09;101890.84;5095038;28;20047;-72
2022/05/15 04:24:21;;;;;;;36.40;11.82;;;15.40;99.90;;;15.84;71.02;101888.97;5113338;28;20149;-72
2022/05/15 04:26:50;;;;;;;37.30;12.25;;;15.50;99.90;;;15.91;70.99;101898.66;5094943;28;20569;-71
2022/05/15 04:29:18;;;;;;;34.03;11.40;;;15.50;99.90;;;15.85;70.95;101892.53;5094940;28;20441;-72
2022/05/15 04:31:47;;;;;;;36.58;11.95;;;15.50;99.90;;;15.85;70.94;101888.03;5113040;28;20457;-72
2022/05/15 04:34:15;;;;;;;37.88;13.65;;;15.50;99.90;;;15.84;70.97;101893.41;5113016;28;20047;-74
2022/05/15 04:36:44;;;;;;;39.95;12.63;;;15.50;99.90;;;15.93;70.97;101886.19;5113052;28;20071;-74
2022/05/15 04:39:13;;;;;;;34.35;12.30;;;15.60;99.90;;;15.95;70.63;101888.88;5112804;28;20078;-72
2022/05/15 04:41:48;;;;;;;32.45;11.80;;;15.60;99.90;;;15.89;70.50;101867.59;5113013;28;20150;-72
2022/05/15 04:44:16;;;;;;;34.60;12.13;;;15.60;99.90;;;15.96;70.39;101869.28;5112991;28;20389;-71
2022/05/15 04:46:45;;;;;;;37.42;13.10;;;15.70;99.90;;;16.06;70.26;101884.28;5113039;28;20044;-72
2022/05/15 04:49:13;;;;;;;38.70;12.18;;;15.70;99.90;;;15.94;70.10;101873.75;5113342;28;20047;-72
2022/05/15 04:51:41;;;;;;;35.25;11.38;;;15.70;99.90;;;15.15;70.39;101769.56;5112924;28;20476;-71
2022/05/15 04:54:10;;;;;;;39.08;12.77;;;15.60;99.90;;;15.75;70.90;101878.38;5112810;28;20108;-72
2022/05/15 04:56:39;;;;;;;46.30;12.65;;;15.50;99.90;;;15.73;71.10;101881.97;5112756;28;20036;-72
2022/05/15 04:59:08;;;;;;;35.17;11.80;;;15.50;99.90;;;15.71;71.28;101875.75;5113057;28;20167;-72
2022/05/15 05:01:36;;;;;;;43.25;11.98;;;15.40;99.90;;;15.81;71.01;101878.34;5112985;28;20774;-72
2022/05/15 05:04:05;;;;;;;33.75;11.20;;;15.50;99.90;;;15.73;70.95;101873.94;5112669;28;20048;-72
2022/05/15 05:06:34;;;;;;;36.00;11.90;;;15.50;99.90;;;15.81;70.87;101872.09;5112847;28;20052;-72
2022/05/15 05:09:03;;;;;;;35.33;12.07;;;15.60;99.90;;;15.78;70.65;101867.66;5112788;28;20100;-71
2022/05/15 05:11:32;;;;;;;45.08;13.00;;;15.60;99.90;;;15.77;70.78;101879.25;5112697;28;20044;-72
2022/05/15 05:14:01;;;;;;;35.47;12.20;;;15.50;99.90;;;15.97;70.72;101881.69;5094726;28;20392;-72
2022/05/15 05:16:30;;;;;;;34.05;11.70;;;15.70;99.90;;;15.93;70.58;101874.66;5112696;28;20052;-72
2022/05/15 05:18:59;;;;;;;34.03;11.70;;;15.60;99.90;;;15.73;71.37;101882.84;5112661;28;20118;-72
2022/05/15 05:21:27;;;;;;;36.42;11.65;;;15.60;99.90;;;15.68;71.70;101887.31;5112852;28;20064;-72
2022/05/15 05:23:55;;;;;;;40.80;12.48;;;15.40;99.90;;;15.97;71.22;101881.69;5112637;28;20040;-72
2022/05/15 05:26:24;;;;;;;41.00;11.77;;;15.60;99.90;;;16.01;70.97;101868.31;5094453;28;20056;-71
2022/05/15 05:28:52;;;;;;;38.88;11.77;;;15.80;99.90;;;16.13;70.64;101875.31;5112554;28;20059;-72
2022/05/15 05:31:23;;;;;;;39.65;12.02;;;15.80;99.90;;;15.84;70.47;101872.06;5094418;28;20052;-72
2022/05/15 05:33:51;;;;;;;36.75;12.25;;;15.70;99.90;;;16.11;71.04;101874.44;5112542;28;20075;-72
2022/05/15 05:36:20;;;;;;;34.70;11.55;;;15.80;99.90;;;16.22;70.80;101875.19;5112297;28;20138;-71
2022/05/15 05:38:48;;;;;;;36.50;12.73;;;15.90;99.90;;;16.35;70.14;101871.50;5112373;28;20427;-72
2022/05/15 05:41:16;;;;;;;32.80;10.98;;;16.00;99.90;;;16.27;70.32;101876.03;5112451;28;20492;-72
2022/05/15 05:43:44;;;;;;;36.60;11.73;;;16.00;99.90;;;16.29;69.61;101876.91;5112459;28;20071;-73
2022/05/15 05:46:13;;;;;;;32.85;11.80;;;16.10;99.90;;;16.36;70.15;101886.59;5113145;28;20060;-73
2022/05/15 05:48:45;;;;;;;36.05;11.88;;;16.00;99.90;;;16.40;70.72;101884.78;5116032;28;20563;-72
2022/05/15 05:51:15;;;;;;;44.13;11.93;;;16.00;99.90;;;16.25;71.13;101896.53;5098028;28;20454;-73
2022/05/15 05:53:44;;;;;;;38.08;12.32;;;16.00;99.90;;;16.07;70.74;101889.63;5097898;28;20043;-73
2022/05/15 05:56:12;;;;;;;42.88;12.60;;;15.90;99.90;;;16.43;70.58;101884.75;5115992;28;20167;-73
2022/05/15 05:58:41;;;;;;;35.75;11.70;;;16.10;99.90;;;16.26;70.59;101882.28;5097596;28;20138;-73
2022/05/15 06:01:09;;;;;;;34.40;12.05;;;16.10;99.90;;;16.70;70.27;101889.78;5115773;28;20052;-72
2022/05/15 06:06:25;;;;;;;34.72;11.77;;;16.00;99.90;;;16.16;71.86;101899.31;5115657;28;20480;-73
2022/05/15 06:08:54;;;;;;;;;;;15.80;99.90;;;16.35;71.64;101894.66;5116228;28;20097;-73
2022/05/15 06:11:22;;;;;;;40.10;12.93;;;16.00;99.90;;;16.39;70.64;101897.28;5115438;28;20019;-72
2022/05/15 06:13:50;;;;;;;40.50;13.13;;;16.20;99.90;;;16.35;71.58;101890.19;5115194;28;20067;-73
2022/05/15 06:16:19;;;;;;;38.75;12.50;;;16.10;99.90;;;16.65;71.10;101891.63;5115390;28;20043;-72
2022/05/15 06:18:47;;;;;;;34.33;11.68;;;16.30;99.90;;;16.85;69.67;101886.91;5115583;28;20043;-73
2022/05/15 06:21:15;;;;;;;31.48;11.38;;;16.60;99.90;;;16.88;71.25;101906.44;5115574;28;20043;-72
2022/05/15 06:23:45;;;;;;;35.42;12.60;;;16.50;99.90;;;16.58;70.87;101903.28;5097401;28;20059;-72
2022/05/15 06:26:13;;;;;;;36.03;12.03;;;16.40;99.90;;;16.72;70.69;101901.34;5115317;28;20047;-71
2022/05/15 06:28:42;;;;;;;29.80;11.90;;;16.50;99.90;;;17.00;70.84;101902.72;5115518;28;20039;-72
2022/05/15 06:31:10;;;;;;;37.75;12.38;;;16.60;99.90;;;17.07;69.07;101912.44;5115580;28;20054;-72
2022/05/15 06:33:38;;;;;;;35.85;11.82;;;16.80;99.90;;;17.12;69.86;101908.78;5115292;28;20049;-72
2022/05/15 06:36:07;;;;;;;35.60;12.90;;;16.70;99.90;;;17.09;69.13;101907.97;5115120;28;20043;-72
2022/05/15 06:38:36;;;;;;;40.75;12.85;;;16.80;99.90;;;17.30;69.13;101904.97;5114858;28;20048;-73
2022/05/15 06:41:09;;;;;;;37.72;12.10;;;16.90;99.90;;;17.56;68.09;101902.78;5115011;28;20146;-73
2022/05/15 06:43:38;;;;;;;36.42;12.02;;;17.20;99.90;;;17.12;68.74;101860.66;5114859;28;20557;-72
2022/05/15 06:46:07;;;;;;;30.33;11.25;;;17.10;99.90;;;17.58;67.73;101900.06;5096480;28;20472;-72
2022/05/15 06:48:38;;;;;;;34.60;12.52;;;17.30;99.90;;;17.28;68.48;101904.09;5096614;28;20056;-72
2022/05/15 06:51:07;;;;;;;39.30;11.82;;;17.10;99.90;;;17.11;69.74;101895.47;5113930;28;20056;-72
2022/05/15 06:53:36;;;;;;;37.55;11.82;;;16.90;99.90;;;17.24;69.01;101899.72;5114302;28;20133;-72
2022/05/15 06:58:52;;;;;;;38.17;12.15;;;17.20;99.90;;;17.55;67.33;101900.13;5114717;28;20450;-72
2022/05/15 07:01:20;;;;;;;31.30;11.07;;;17.30;99.90;;;17.63;68.05;101903.56;5114259;28;20075;-72
2022/05/15 07:03:49;;;;;;;34.78;12.57;;;17.30;99.90;;;17.73;67.20;101857.00;5114916;28;20067;-73
2022/05/15 07:06:20;;;;;;;34.95;11.93;;;17.60;99.90;;;17.61;67.47;101902.72;5114324;28;20035;-73
2022/05/15 07:08:49;;;;;;;37.42;12.07;;;17.50;99.90;;;17.30;68.91;101899.63;5114522;28;20449;-71
2022/05/15 07:11:17;;;;;;;37.45;12.45;;;17.10;99.90;;;16.85;70.77;101861.06;5114314;28;20039;-71
2022/05/15 07:13:46;;;;;;;40.28;12.48;;;16.80;99.90;;;17.44;69.52;101918.13;5114347;28;20047;-74
2022/05/15 07:16:16;;;;;;;29.38;11.80;;;17.00;99.90;;;17.30;69.38;101904.06;5114130;28;20122;-73
2022/05/15 07:18:44;;;;;;;30.63;11.40;;;17.00;99.90;;;17.69;68.79;101909.69;5096029;28;20500;-71
2022/05/15 07:21:13;;;;;;;30.27;12.18;;;17.30;99.90;;;17.92;67.63;101904.81;5113862;28;20475;-71
2022/05/15 07:23:42;;;;;;;31.30;12.38;;;17.60;99.90;;;18.04;66.97;101901.03;5114284;28;20067;-71
2022/05/15 07:26:10;;;;;;;37.80;12.77;;;17.70;99.90;;;18.10;67.63;101898.22;5114177;28;20045;-75
2022/05/15 07:28:38;;;;;;;29.10;11.30;;;17.70;99.90;;;18.55;66.81;101908.09;5113916;28;20043;-75
2022/05/15 07:31:07;;;;;;;31.83;12.10;;;18.10;99.90;;;18.75;67.71;101905.00;5095334;28;20040;-74
2022/05/15 07:33:37;;;;;;;31.83;11.73;;;18.30;99.90;;;18.69;67.13;101900.66;5095229;28;20071;-74
2022/05/15 07:36:06;;;;;;;34.20;12.83;;;18.40;99.90;;;18.97;65.61;101897.38;5113412;28;20039;-72
2022/05/15 07:38:34;;;;;;;36.28;12.55;;;18.60;99.90;;;19.04;65.26;101899.88;5113534;28;20484;-66
2022/05/15 07:41:04;;;;;;;36.40;12.32;;;18.80;99.90;;;19.18;64.33;101865.53;5113524;28;20468;-66
2022/05/15 07:43:34;;;;;;;36.78;12.63;;;19.00;99.90;;;19.68;64.96;101901.94;5113617;28;20056;-65
2022/05/15 07:46:02;;;;;;;30.45;10.80;;;19.30;99.90;;;19.33;63.70;101892.06;5113258;28;20050;-65
2022/05/15 07:48:31;;;;;;;30.50;11.50;;;19.20;99.90;;;19.61;63.14;101893.13;5113186;28;20040;-65
2022/05/15 07:51:01;;;;;;;35.97;12.73;;;19.30;99.90;;;20.05;63.35;101896.47;5113389;28;20404;-65
2022/05/15 07:53:29;;;;;;;36.38;11.75;;;19.60;99.90;;;19.71;63.80;101891.09;5113114;28;20081;-65
2022/05/15 07:56:03;;;;;;;35.88;11.88;;;19.50;99.90;;;20.12;63.25;101890.91;5113371;28;20414;-65
2022/05/15 07:58:32;;;;;;;33.67;12.45;;;19.70;99.90;;;19.99;62.44;101886.78;5113977;28;20048;-66
2022/05/15 08:01:04;;;;;;;29.70;11.63;;;19.80;99.90;;;19.98;63.23;101884.13;5113415;28;20245;-65
2022/05/15 08:03:37;;;;;;;33.72;12.52;;;19.70;99.90;;;20.14;63.01;101883.69;5113566;28;20035;-65
2022/05/15 08:08:53;;;;;;;33.55;12.50;;;19.90;99.90;;;20.36;62.09;101865.19;5113351;28;20077;-63
2022/05/15 08:11:26;;;;;;;36.42;12.35;;;20.00;99.90;;;20.39;62.04;101865.97;5113366;28;20036;-66
2022/05/15 08:13:55;;;;;;;33.53;12.35;;;20.10;99.90;;;20.53;61.16;101869.16;5113198;28;20051;-63
2022/05/15 08:16:23;;;;;;;32.80;12.07;;;20.30;99.90;;;20.40;61.44;101851.59;5113043;28;20046;-65
2022/05/15 08:24:30;;;;;;;31.33;12.50;;;20.70;99.90;;;21.05;59.96;101859.50;5076659;28;20067;-66
2022/05/15 08:26:59;;;;;;;34.97;12.88;;;20.80;99.90;;;20.98;61.97;101856.09;5112677;28;20075;-62
2022/05/15 08:29:34;;;;;;;29.95;12.77;;;20.70;99.90;;;21.42;60.29;101844.81;5112804;28;20036;-65
2022/05/15 08:32:03;;;;;;;27.98;11.75;;;21.00;99.90;;;21.61;59.24;101855.84;5112925;28;20511;-65
2022/05/15 08:34:32;;;;;;;31.85;12.60;;;21.30;99.90;;;21.40;59.38;101856.56;5094615;28;20504;-64
2022/05/15 08:37:02;;;;;;;32.22;13.23;;;21.20;99.90;;;21.40;59.04;101843.09;5112710;28;20067;-66
2022/05/15 08:39:31;;;;;;;27.02;13.32;;;21.20;99.90;;;21.37;58.19;101857.53;5112919;28;20071;-67
2022/05/15 08:42:17;;;;;;;27.85;12.75;;;21.20;99.90;;;21.15;59.23;101826.00;5112774;28;20044;-66
2022/05/15 08:44:47;;;;;;;31.52;13.77;;;21.00;99.90;;;21.12;59.89;101861.94;5112821;28;20047;-68
2022/05/15 08:47:20;;;;;;;37.08;14.18;;;20.80;99.90;;;20.81;60.26;101830.66;5094459;28;20541;-64
2022/05/15 08:49:59;;;;;;;30.30;12.35;;;20.60;99.90;;;21.42;60.65;101858.28;5112655;28;20047;-62
2022/05/15 08:52:35;;;;;;;33.60;13.63;;;21.00;99.90;;;21.52;60.09;101850.78;5112665;28;20052;-66
2022/05/15 08:55:09;;;;;;;26.70;12.95;;;21.10;99.90;;;21.45;59.97;101843.81;5112833;28;20525;-67
2022/05/15 08:57:45;;;;;;;30.13;12.77;;;21.20;99.90;;;21.39;59.23;101846.72;5112832;28;20043;-65
2022/05/15 09:00:18;;;;;;;32.00;14.27;;;21.10;99.90;;;21.38;60.76;101831.50;5112954;28;20085;-65
2022/05/15 09:02:48;;;;;;;33.53;13.25;;;21.00;99.90;;;21.65;59.62;101829.66;5112455;28;20514;-69
2022/05/15 09:05:17;;;;;;;23.38;12.13;;;21.20;99.90;;;21.65;59.05;101837.75;5112794;28;20040;-63
2022/05/15 09:08:00;;;;;;;33.80;13.18;;;21.30;99.90;;;21.98;59.39;101831.22;5112717;28;20130;-65
2022/05/15 09:10:35;;;;;;;25.83;13.25;;;21.50;99.90;;;21.95;57.39;101812.47;5112644;28;20044;-63
2022/05/15 09:13:12;;;;;;;25.20;12.43;;;21.80;99.90;;;21.52;57.56;101743.06;5094132;28;20078;-65
2022/05/15 09:16:00;;;;;;;27.73;12.18;;;21.80;99.90;;;22.03;56.09;101840.00;5112526;28;20082;-62
2022/05/15 09:18:33;;;;;;;24.80;11.65;;;21.70;99.90;;;22.09;56.75;101840.66;5112492;28;20055;-68
2022/05/15 09:21:07;;;;;;;27.63;11.85;;;21.80;99.90;;;22.00;54.75;101845.50;5113504;28;20053;-62
2022/05/15 09:23:43;;;;;;;24.63;11.80;;;21.70;99.90;;;22.19;56.31;101844.78;5098137;28;20049;-67
2022/05/15 09:26:19;;;;;;;28.65;11.10;;;21.90;99.90;;;22.25;56.48;101858.06;5116669;28;20755;-65
2022/05/15 09:28:52;;;;;;;21.92;11.85;;;21.90;99.90;;;22.33;55.08;101855.06;5116305;28;20040;-64
2022/05/15 09:31:28;;;;;;;25.77;12.07;;;22.00;99.90;;;22.38;55.29;101853.06;5116290;28;20039;-65
2022/05/15 09:33:59;;;;;;;25.08;11.90;;;22.10;99.90;;;22.45;54.21;101842.00;5115938;28;20492;-66
2022/05/15 09:36:32;;;;;;;24.70;12.10;;;22.20;99.90;;;22.47;54.16;101851.84;5116091;28;20048;-67
2022/05/15 09:39:18;;;;;;;24.80;12.38;;;22.20;99.90;;;22.64;54.48;101854.81;5116182;28;20052;-66
2022/05/15 09:44:48;;;;;;;27.88;12.25;;;22.50;99.90;;;22.53;51.98;101816.56;5116016;28;20412;-70
2022/05/15 09:47:30;;;;;;;28.88;13.13;;;22.50;99.90;;;22.76;52.40;101851.66;5115832;28;20047;-65
2022/05/15 09:50:00;;;;;;;22.90;11.30;;;22.50;99.90;;;22.84;52.53;101858.50;5115848;28;20116;-64
2022/05/15 09:52:34;;;;;;;29.80;12.30;;;22.50;99.90;;;23.02;52.92;101856.88;5097720;28;20066;-65
2022/05/15 09:55:21;;;;;;;23.08;12.27;;;22.60;99.90;;;22.83;51.42;101851.34;5115764;28;20529;-69
2022/05/15 10:01:24;;;;;;;27.50;11.73;;;22.60;99.90;;;22.25;50.28;101752.91;5857178;23;20166;-65
2022/05/15 10:03:55;;;;;;;23.85;11.07;;;22.60;99.90;;;23.04;49.91;101846.91;4860729;29;20160;-63
2022/05/15 10:06:27;;;;;;;24.67;12.27;;;22.70;99.90;;;23.12;51.57;101834.88;4863272;29;20117;-63
2022/05/15 10:09:16;;;;;;;22.90;11.90;;;22.80;99.90;;;23.12;49.39;101837.56;4862987;29;20132;-60
2022/05/15 10:11:48;;;;;;;27.95;12.55;;;22.80;99.90;;;23.23;51.40;101802.00;4863199;29;20574;-62
2022/05/15 10:14:29;;;;;;;34.78;13.57;;;23.00;99.90;;;23.19;49.77;101846.28;4863274;29;20068;-61
2022/05/15 10:17:00;;;;;;;24.10;12.95;;;23.00;99.90;;;23.11;48.46;101845.75;4861919;29;20106;-62
2022/05/15 10:19:33;;;;;;;;;;;22.90;99.90;;;23.20;50.29;101829.16;4862118;29;20061;-60
2022/05/15 10:22:32;;;;;;;28.45;12.13;;;22.90;99.90;;;23.27;49.64;101807.22;4863112;29;19928;-62
2022/05/15 10:25:25;;;;;;;21.98;11.07;;;23.00;99.90;;;23.41;47.46;101825.59;4858473;29;20495;-61
2022/05/15 10:28:08;;;;;;;19.15;10.18;;;23.20;99.90;;;23.38;46.23;101817.63;4861582;29;20483;-62
2022/05/15 10:30:49;;;;;;;20.13;10.70;;;23.10;99.90;;;23.32;47.28;101828.69;4862584;29;20437;-64
2022/05/15 10:33:20;;;;;;;22.27;10.27;;;23.00;99.90;;;23.59;46.87;101810.41;4862237;29;20041;-64
2022/05/15 10:36:06;;;;;;;20.88;10.68;;;23.20;99.90;;;23.87;46.71;101819.06;4862717;29;20483;-64
2022/05/15 10:38:49;;;;;;;22.90;10.52;;;23.40;99.90;;;23.89;47.04;101815.38;4862644;29;20053;-66